createdAt,value
2023-01-01T00:01:19.989Z,60.59
2023-01-01T00:04:10.322Z,60.71
2023-01-01T00:07:55.354Z,60.77
2023-01-01T00:11:34.322Z,60.79
2023-01-01T00:17:42.562Z,60.79
2023-01-01T00:20:35.671Z,60.73
2023-01-01T00:23:25.283Z,60.79
2023-01-01T00:26:43.609Z,61.13
2023-01-01T00:29:33.394Z,61.49
2023-01-01T00:32:38.413Z,61.34
2023-01-01T00:35:21.773Z,61.46
2023-01-01T00:38:08.879Z,61.81
2023-01-01T00:40:58.811Z,61.69
2023-01-01T00:43:27.638Z,62.05
2023-01-01T00:45:59.076Z,62.01
2023-01-01T00:48:49.269Z,61.85
2023-01-01T00:51:39.333Z,62.02
2023-01-01T00:54:14.739Z,61.74
2023-01-01T00:57:39.287Z,61.80
2023-01-01T01:00:24.771Z,61.49
2023-01-01T01:03:35.058Z,61.72
2023-01-01T01:06:13.733Z,61.35
2023-01-01T01:08:43.601Z,61.27
2023-01-01T01:11:21.137Z,61.63
2023-01-01T01:13:51.262Z,61.23
2023-01-01T01:16:22.121Z,61.34
2023-01-01T01:19:20.405Z,61.36
2023-01-01T01:22:01.114Z,61.42
2023-01-01T01:24:41.633Z,61.30
2023-01-01T01:27:14.664Z,61.38
2023-01-01T01:29:43.280Z,61.40
2023-01-01T01:32:17.072Z,61.45
2023-01-01T01:34:55.541Z,61.28
2023-01-01T01:37:30.958Z,61.40
2023-01-01T01:40:00.398Z,61.20
2023-01-01T01:42:40.733Z,61.44
2023-01-01T01:45:21.196Z,61.51
2023-01-01T01:47:56.644Z,61.63
2023-01-01T01:50:47.884Z,61.67
2023-01-01T01:53:22.711Z,61.34
2023-01-01T01:55:55.287Z,61.38
2023-01-01T01:58:29.133Z,61.46
2023-01-01T02:01:02.847Z,61.30
2023-01-01T02:03:36.440Z,61.14
2023-01-01T02:06:13.699Z,61.00
2023-01-01T02:08:42.375Z,60.80
2023-01-01T02:11:11.023Z,60.80
2023-01-01T02:13:40.530Z,60.61
2023-01-01T02:16:14.677Z,60.45
2023-01-01T02:18:47.426Z,60.54
2023-01-01T02:21:20.304Z,60.04
2023-01-01T02:24:03.429Z,60.04
2023-01-01T02:26:43.324Z,59.67
2023-01-01T02:29:36.759Z,59.61
2023-01-01T02:32:10.528Z,59.47
2023-01-01T02:34:41.663Z,59.24
2023-01-01T02:37:13.881Z,59.37
2023-01-01T02:39:47.943Z,59.02
2023-01-01T02:42:16.524Z,59.17
2023-01-01T02:44:49.841Z,58.93
2023-01-01T02:47:19.980Z,59.17
2023-01-01T02:49:52.833Z,59.25
2023-01-01T02:52:44.017Z,58.92
2023-01-01T02:55:22.044Z,58.98
2023-01-01T02:57:52.906Z,59.03
2023-01-01T03:00:27.887Z,59.38
2023-01-01T03:03:11.723Z,59.42
2023-01-01T03:05:59.206Z,59.49
2023-01-01T03:08:35.814Z,59.36
2023-01-01T03:11:05.681Z,59.33
2023-01-01T03:13:38.719Z,59.10
2023-01-01T03:16:11.267Z,59.03
2023-01-01T03:18:42.999Z,59.20
2023-01-01T03:23:49.942Z,58.99
2023-01-01T03:26:19.405Z,58.90
2023-01-01T03:28:48.748Z,58.72
2023-01-01T03:31:20.500Z,59.00
2023-01-01T03:33:50.032Z,58.94
2023-01-01T03:36:31.914Z,58.66
2023-01-01T03:39:02.578Z,58.95
2023-01-01T03:41:34.300Z,59.05
2023-01-01T03:44:12.005Z,59.02
2023-01-01T03:46:42.388Z,59.15
2023-01-01T03:49:25.173Z,59.06
2023-01-01T03:52:03.238Z,58.58
2023-01-01T03:54:42.291Z,59.06
2023-01-01T03:57:17.346Z,59.25
2023-01-01T03:59:51.419Z,59.02
2023-01-01T04:02:22.659Z,59.29
2023-01-01T04:04:51.083Z,59.39
2023-01-01T04:07:19.386Z,59.40
2023-01-01T04:09:50.296Z,59.61
2023-01-01T04:12:18.802Z,59.86
2023-01-01T04:14:47.313Z,60.13
2023-01-01T04:17:15.454Z,60.62
2023-01-01T04:19:50.059Z,60.89
2023-01-01T04:22:23.751Z,61.11
2023-01-01T04:24:55.700Z,61.30
2023-01-01T04:27:26.776Z,61.23
2023-01-01T04:29:54.933Z,61.33
2023-01-01T04:32:23.553Z,61.28
2023-01-01T04:34:55.344Z,61.86
2023-01-01T04:37:23.803Z,61.44
2023-01-01T04:39:51.988Z,61.59
2023-01-01T04:42:20.150Z,61.25
2023-01-01T04:44:49.537Z,61.26
2023-01-01T04:47:17.827Z,61.48
2023-01-01T04:49:45.952Z,61.23
2023-01-01T04:52:15.473Z,60.74
2023-01-01T04:54:43.713Z,60.96
2023-01-01T04:57:11.887Z,61.28
2023-01-01T04:59:40.195Z,60.99
2023-01-01T05:02:08.481Z,61.18
2023-01-01T05:04:36.821Z,60.88
2023-01-01T05:07:05.400Z,61.00
2023-01-01T05:09:34.960Z,60.99
2023-01-01T05:12:03.159Z,61.20
2023-01-01T05:14:31.228Z,60.91
2023-01-01T05:16:59.437Z,60.72
2023-01-01T05:19:29.990Z,60.69
2023-01-01T05:21:58.207Z,60.37
2023-01-01T05:24:26.509Z,60.41
2023-01-01T05:26:57.023Z,60.31
2023-01-01T05:29:25.381Z,59.94
2023-01-01T05:31:53.533Z,59.96
2023-01-01T05:34:21.764Z,59.52
2023-01-01T05:36:49.940Z,59.48
2023-01-01T05:39:18.132Z,59.48
2023-01-01T05:41:46.519Z,58.93
2023-01-01T05:44:16.719Z,58.86
2023-01-01T05:46:44.999Z,58.77
2023-01-01T05:49:13.501Z,58.43
2023-01-01T05:56:36.813Z,57.92
2023-01-01T05:59:08.213Z,57.83
2023-01-01T06:01:45.176Z,58.02
2023-01-01T06:04:14.986Z,57.82
2023-01-01T06:06:43.552Z,57.68
2023-01-01T06:09:13.583Z,57.57
2023-01-01T06:11:41.957Z,57.56
2023-01-01T06:14:12.944Z,57.74
2023-01-01T06:16:45.250Z,57.69
2023-01-01T06:19:13.473Z,57.49
2023-01-01T06:21:44.525Z,57.74
2023-01-01T06:24:12.928Z,57.71
2023-01-01T06:26:41.212Z,57.96
2023-01-01T06:29:09.777Z,57.86
2023-01-01T06:31:40.874Z,58.06
2023-01-01T06:34:12.712Z,57.89
2023-01-01T06:36:41.098Z,57.89
2023-01-01T06:39:09.519Z,57.89
2023-01-01T06:41:38.093Z,57.90
2023-01-01T06:44:06.586Z,58.02
2023-01-01T06:46:35.323Z,58.07
2023-01-01T06:49:04.824Z,58.31
2023-01-01T06:51:35.394Z,58.38
2023-01-01T06:54:04.105Z,58.45
2023-01-01T06:56:32.353Z,58.58
2023-01-01T06:59:00.923Z,58.45
2023-01-01T07:01:30.338Z,58.62
2023-01-01T07:03:59.644Z,58.50
2023-01-01T07:06:30.981Z,58.47
2023-01-01T07:09:00.665Z,58.76
2023-01-01T07:11:29.520Z,58.62
2023-01-01T07:13:57.735Z,58.77
2023-01-01T07:16:29.019Z,58.74
2023-01-01T07:18:59.695Z,58.68
2023-01-01T07:21:30.237Z,58.75
2023-01-01T07:24:00.786Z,58.58
2023-01-01T07:26:29.757Z,58.80
2023-01-01T07:29:06.894Z,58.92
2023-01-01T07:31:36.598Z,59.01
2023-01-01T07:34:04.903Z,58.86
2023-01-01T07:36:33.385Z,59.14
2023-01-01T07:39:03.522Z,58.84
2023-01-01T07:41:31.710Z,58.96
2023-01-01T07:44:00.461Z,58.83
2023-01-01T07:46:28.854Z,59.18
2023-01-01T07:48:57.758Z,58.82
2023-01-01T07:51:26.075Z,59.01
2023-01-01T07:53:54.469Z,58.96
2023-01-01T07:56:24.976Z,59.14
2023-01-01T07:58:53.428Z,59.18
2023-01-01T08:01:23.218Z,59.22
2023-01-01T08:03:55.181Z,59.29
2023-01-01T08:06:25.675Z,59.39
2023-01-01T08:08:55.561Z,59.55
2023-01-01T08:11:25.354Z,59.49
2023-01-01T08:13:57.687Z,59.36
2023-01-01T08:16:26.279Z,59.08
2023-01-01T08:18:57.018Z,59.24
2023-01-01T08:21:25.345Z,59.48
2023-01-01T08:23:54.765Z,59.17
2023-01-01T08:26:30.621Z,59.10
2023-01-01T08:29:04.537Z,59.30
2023-01-01T08:31:36.056Z,59.51
2023-01-01T08:34:04.814Z,59.56
2023-01-01T08:36:33.199Z,59.46
2023-01-01T08:39:01.740Z,59.32
2023-01-01T08:41:33.458Z,59.47
2023-01-01T08:44:04.772Z,59.75
2023-01-01T08:46:33.198Z,59.34
2023-01-01T08:49:01.592Z,59.59
2023-01-01T08:51:31.359Z,59.64
2023-01-01T08:53:59.796Z,59.91
2023-01-01T08:56:28.374Z,60.03
2023-01-01T08:59:03.913Z,59.95
2023-01-01T09:01:35.923Z,59.89
2023-01-01T09:04:13.579Z,59.76
2023-01-01T09:06:43.903Z,60.01
2023-01-01T09:09:12.077Z,60.13
2023-01-01T09:11:40.203Z,60.35
2023-01-01T09:14:09.956Z,60.31
2023-01-01T09:16:43.880Z,60.53
2023-01-01T09:19:14.384Z,60.39
2023-01-01T09:21:42.470Z,60.17
2023-01-01T09:24:13.984Z,60.28
2023-01-01T09:26:44.685Z,60.16
2023-01-01T09:29:18.643Z,60.19
2023-01-01T09:31:47.445Z,60.32
2023-01-01T09:34:19.279Z,60.10
2023-01-01T09:36:47.798Z,59.92
2023-01-01T09:39:19.782Z,59.75
2023-01-01T09:41:57.470Z,59.72
2023-01-01T09:44:50.304Z,59.58
2023-01-01T09:47:24.258Z,59.72
2023-01-01T09:49:52.611Z,59.59
2023-01-01T09:52:20.921Z,59.34
2023-01-01T09:54:51.674Z,59.40
2023-01-01T09:57:20.608Z,59.25
2023-01-01T09:59:50.953Z,59.29
2023-01-01T10:02:31.508Z,59.17
2023-01-01T10:05:04.505Z,58.91
2023-01-01T10:07:38.636Z,58.93
2023-01-01T10:10:16.701Z,58.56
2023-01-01T10:12:48.854Z,58.59
2023-01-01T10:15:22.837Z,58.77
2023-01-01T10:17:58.165Z,58.60
2023-01-01T10:20:49.535Z,58.32
2023-01-01T10:23:23.003Z,58.54
2023-01-01T10:25:54.461Z,58.24
2023-01-01T10:28:28.577Z,58.11
2023-01-01T10:31:16.598Z,58.01
2023-01-01T10:33:45.885Z,58.04
2023-01-01T10:36:19.320Z,57.92
2023-01-01T10:38:55.427Z,58.01
2023-01-01T10:41:30.024Z,57.86
2023-01-01T10:43:58.891Z,57.78
2023-01-01T10:46:32.447Z,58.05
2023-01-01T10:49:11.085Z,57.89
2023-01-01T10:51:44.213Z,57.79
2023-01-01T10:54:32.135Z,57.69
2023-01-01T10:57:00.694Z,57.62
2023-01-01T10:59:37.223Z,57.49
2023-01-01T11:02:22.377Z,57.52
2023-01-01T11:04:51.143Z,57.49
2023-01-01T11:07:26.744Z,57.29
2023-01-01T11:10:11.795Z,56.96
2023-01-01T11:15:41.217Z,56.97
2023-01-01T11:18:18.500Z,56.95
2023-01-01T11:20:57.716Z,57.00
2023-01-01T11:23:31.195Z,56.82
2023-01-01T11:26:05.710Z,56.75
2023-01-01T11:28:34.612Z,56.69
2023-01-01T11:31:20.567Z,56.78
2023-01-01T11:34:02.658Z,56.96
2023-01-01T11:36:32.755Z,56.92
2023-01-01T11:39:15.403Z,56.96
2023-01-01T11:41:44.788Z,56.95
2023-01-01T11:44:26.827Z,57.00
2023-01-01T11:46:55.438Z,56.79
2023-01-01T11:49:31.956Z,56.96
2023-01-01T11:52:07.918Z,57.06
2023-01-01T11:54:48.803Z,57.25
2023-01-01T11:57:19.693Z,57.14
2023-01-01T11:59:53.725Z,57.09
2023-01-01T12:02:30.552Z,57.29
2023-01-01T12:05:06.359Z,56.95
2023-01-01T12:07:47.943Z,57.26
2023-01-01T12:10:24.139Z,57.23
2023-01-01T12:12:59.309Z,57.01
2023-01-01T12:15:35.233Z,57.32
2023-01-01T12:18:09.361Z,57.26
2023-01-01T12:20:44.182Z,57.31
2023-01-01T12:23:17.593Z,57.23
2023-01-01T12:26:00.376Z,57.42
2023-01-01T12:28:37.591Z,57.33
2023-01-01T12:31:09.757Z,57.61
2023-01-01T12:34:00.976Z,57.35
2023-01-01T12:36:37.109Z,57.19
2023-01-01T12:39:44.546Z,57.28
2023-01-01T12:42:17.693Z,57.40
2023-01-01T12:44:55.701Z,57.40
2023-01-01T12:47:40.351Z,57.06
2023-01-01T12:50:20.298Z,57.17
2023-01-01T12:53:14.431Z,57.37
2023-01-01T12:56:11.723Z,57.21
2023-01-01T12:58:42.004Z,57.03
2023-01-01T13:01:16.418Z,57.01
2023-01-01T13:03:53.094Z,56.99
2023-01-01T13:06:31.087Z,56.93
2023-01-01T13:09:07.251Z,56.75
2023-01-01T13:11:39.787Z,56.67
2023-01-01T13:14:14.347Z,56.82
2023-01-01T13:16:43.307Z,56.74
2023-01-01T13:19:25.701Z,56.68
2023-01-01T13:21:56.346Z,56.53
2023-01-01T13:24:35.569Z,56.57
2023-01-01T13:27:10.759Z,56.43
2023-01-01T13:29:47.496Z,56.38
2023-01-01T13:32:39.675Z,56.16
2023-01-01T13:35:18.778Z,56.22
2023-01-01T13:38:30.082Z,56.38
2023-01-01T13:41:02.820Z,56.14
2023-01-01T13:43:31.860Z,56.31
2023-01-01T13:46:17.297Z,56.28
2023-01-01T13:49:18.010Z,56.35
2023-01-01T13:52:21.943Z,56.21
2023-01-01T13:55:00.925Z,56.42
2023-01-01T13:57:42.156Z,56.62
2023-01-01T14:00:51.826Z,56.65
2023-01-01T14:03:27.863Z,56.77
2023-01-01T14:05:57.116Z,56.80
2023-01-01T14:08:35.835Z,56.87
2023-01-01T14:11:19.526Z,57.03
2023-01-01T14:13:49.394Z,57.03
2023-01-01T14:16:18.222Z,57.02
2023-01-01T14:18:53.195Z,57.19
2023-01-01T14:21:33.828Z,57.17
2023-01-01T14:24:13.099Z,56.99
2023-01-01T14:26:41.671Z,57.08
2023-01-01T14:29:25.708Z,57.05
2023-01-01T14:31:56.423Z,57.03
2023-01-01T14:34:28.072Z,57.17
2023-01-01T14:36:57.278Z,57.09
2023-01-01T14:39:29.495Z,57.27
2023-01-01T14:42:00.580Z,57.15
2023-01-01T14:44:44.390Z,57.17
2023-01-01T14:47:18.783Z,57.29
2023-01-01T14:49:48.337Z,57.23
2023-01-01T14:52:22.644Z,57.24
2023-01-01T14:54:57.045Z,57.34
2023-01-01T14:57:34.670Z,57.10
2023-01-01T15:00:06.050Z,56.93
2023-01-01T15:02:38.859Z,56.76
2023-01-01T15:05:22.553Z,56.67
2023-01-01T15:07:58.431Z,56.26
2023-01-01T15:10:33.084Z,56.00
2023-01-01T15:13:12.078Z,55.91
2023-01-01T15:15:45.611Z,55.68
2023-01-01T15:18:38.957Z,55.49
2023-01-01T15:21:09.265Z,56.02
2023-01-01T15:23:37.468Z,56.42
2023-01-01T15:26:08.981Z,56.70
2023-01-01T15:28:39.575Z,57.08
2023-01-01T15:31:49.191Z,57.15
2023-01-01T15:34:31.540Z,57.29
2023-01-01T15:37:09.565Z,57.28
2023-01-01T15:39:51.767Z,57.39
2023-01-01T15:42:47.324Z,57.36
2023-01-01T15:45:20.820Z,57.44
2023-01-01T15:47:55.181Z,57.35
2023-01-01T15:50:33.503Z,57.21
2023-01-01T15:53:09.577Z,57.08
2023-01-01T15:55:43.988Z,56.98
2023-01-01T15:58:26.125Z,56.95
2023-01-01T16:01:02.209Z,57.00
2023-01-01T16:03:35.233Z,57.13
2023-01-01T16:06:17.446Z,57.00
2023-01-01T16:09:04.700Z,56.86
2023-01-01T16:11:45.985Z,56.81
2023-01-01T16:14:23.986Z,56.99
2023-01-01T16:17:05.479Z,56.64
2023-01-01T16:19:44.913Z,56.51
2023-01-01T16:22:23.860Z,56.33
2023-01-01T16:24:58.712Z,56.35
2023-01-01T16:27:27.587Z,56.20
2023-01-01T16:30:00.771Z,56.25
2023-01-01T16:32:31.332Z,56.17
2023-01-01T16:35:11.615Z,56.11
2023-01-01T16:37:42.254Z,55.94
2023-01-01T16:40:12.266Z,56.02
2023-01-01T16:42:40.606Z,56.03
2023-01-01T16:45:18.715Z,56.15
2023-01-01T16:47:47.711Z,56.20
2023-01-01T16:50:16.438Z,56.04
2023-01-01T16:52:48.135Z,55.88
2023-01-01T16:55:16.605Z,55.94
2023-01-01T16:57:50.279Z,56.05
2023-01-01T17:00:20.313Z,55.85
2023-01-01T17:03:00.440Z,56.06
2023-01-01T17:05:32.378Z,55.98
2023-01-01T17:08:05.292Z,55.91
2023-01-01T17:10:37.107Z,56.06
2023-01-01T17:13:08.284Z,55.77
2023-01-01T17:15:39.677Z,55.93
2023-01-01T17:18:15.746Z,56.07
2023-01-01T17:20:47.246Z,56.05
2023-01-01T17:23:17.475Z,55.87
2023-01-01T17:25:50.283Z,55.85
2023-01-01T17:28:22.653Z,55.62
2023-01-01T17:30:51.139Z,55.59
2023-01-01T17:33:25.353Z,55.51
2023-01-01T17:35:54.468Z,55.31
2023-01-01T17:38:25.056Z,55.27
2023-01-01T17:41:02.729Z,55.20
2023-01-01T17:43:38.956Z,55.22
2023-01-01T17:46:24.235Z,55.14
2023-01-01T17:49:12.977Z,55.45
2023-01-01T17:52:06.841Z,55.18
2023-01-01T17:54:53.457Z,55.22
2023-01-01T17:57:32.535Z,55.09
2023-01-01T18:00:10.356Z,55.25
2023-01-01T18:02:43.937Z,55.25
2023-01-01T18:05:25.588Z,55.21
2023-01-01T18:08:06.044Z,55.39
2023-01-01T18:11:02.590Z,55.18
2023-01-01T18:13:35.312Z,55.35
2023-01-01T18:16:23.328Z,55.19
2023-01-01T18:19:30.194Z,55.05
2023-01-01T18:21:58.869Z,55.11
2023-01-01T18:24:54.958Z,55.33
2023-01-01T18:27:27.473Z,55.42
2023-01-01T18:30:00.791Z,55.30
2023-01-01T18:32:36.779Z,55.64
2023-01-01T18:35:06.912Z,55.69
2023-01-01T18:37:40.591Z,55.80
2023-01-01T18:40:24.565Z,55.88
2023-01-01T18:43:19.703Z,55.83
2023-01-01T18:45:58.399Z,55.70
2023-01-01T18:48:57.036Z,55.81
2023-01-01T18:51:34.848Z,55.55
2023-01-01T18:54:14.022Z,55.59
2023-01-01T18:57:12.636Z,55.54
2023-01-01T19:00:14.300Z,55.67
2023-01-01T19:03:23.160Z,55.51
2023-01-01T19:05:54.311Z,55.72
2023-01-01T19:08:38.192Z,55.60
2023-01-01T19:11:14.526Z,55.50
2023-01-01T19:13:46.282Z,55.44
2023-01-01T19:16:26.476Z,55.72
2023-01-01T19:18:55.079Z,55.62
2023-01-01T19:21:27.158Z,55.70
2023-01-01T19:24:07.161Z,55.49
2023-01-01T19:27:00.293Z,55.76
2023-01-01T19:29:47.766Z,55.70
2023-01-01T19:32:21.691Z,55.95
2023-01-01T19:34:51.213Z,55.99
2023-01-01T19:37:29.188Z,56.15
2023-01-01T19:40:06.700Z,56.52
2023-01-01T19:42:37.313Z,56.75
2023-01-01T19:45:08.575Z,56.81
2023-01-01T19:47:54.343Z,56.57
2023-01-01T19:50:33.203Z,56.95
2023-01-01T19:53:07.906Z,56.76
2023-01-01T19:55:40.400Z,57.10
2023-01-01T19:58:14.499Z,57.02
2023-01-01T20:00:54.716Z,57.30
2023-01-01T20:03:53.470Z,56.93
2023-01-01T20:06:24.625Z,56.98
2023-01-01T20:08:56.233Z,57.38
2023-01-01T20:11:28.207Z,57.25
2023-01-01T20:14:04.140Z,57.37
2023-01-01T20:16:40.003Z,57.32
2023-01-01T20:19:15.450Z,57.55
2023-01-01T20:22:06.720Z,57.31
2023-01-01T20:24:44.595Z,57.39
2023-01-01T20:27:23.439Z,57.70
2023-01-01T20:29:58.139Z,57.37
2023-01-01T20:32:44.024Z,57.43
2023-01-01T20:35:16.080Z,57.47
2023-01-01T20:37:46.277Z,57.57
2023-01-01T20:40:24.334Z,57.71
2023-01-01T20:43:08.660Z,57.30
2023-01-01T20:45:49.046Z,57.63
2023-01-01T20:53:26.110Z,57.53
2023-01-01T20:56:37.850Z,57.65
2023-01-01T21:04:58.059Z,57.71
2023-01-01T21:06:53.305Z,57.96
2023-01-01T21:09:26.526Z,58.43
2023-01-01T21:12:36.508Z,58.02
2023-01-01T21:15:23.761Z,58.43
2023-01-01T21:21:09.685Z,58.31
2023-01-01T21:24:10.047Z,58.47
2023-01-01T21:30:55.937Z,58.56
2023-01-01T21:34:02.125Z,58.69
2023-01-01T21:36:43.948Z,58.83
2023-01-01T21:39:46.620Z,58.64
2023-01-01T21:42:24.008Z,58.86
2023-01-01T21:44:55.013Z,58.92
2023-01-01T21:51:51.711Z,58.95
2023-01-01T21:54:34.683Z,59.39
2023-01-01T21:57:51.013Z,59.56
2023-01-01T22:01:20.840Z,59.57
2023-01-01T22:04:21.764Z,59.13
2023-01-01T22:07:00.669Z,59.36
2023-01-01T22:09:44.630Z,59.41
2023-01-01T22:12:24.339Z,59.51
2023-01-01T22:14:57.557Z,59.63
2023-01-01T22:17:42.959Z,59.53
2023-01-01T22:26:42.302Z,59.98
2023-01-01T22:32:28.072Z,59.76
2023-01-01T22:35:20.553Z,59.95
2023-01-01T22:51:58.890Z,60.21
2023-01-01T22:54:28.171Z,59.95
2023-01-01T22:57:48.675Z,59.93
2023-01-01T23:17:29.241Z,60.67
2023-01-01T23:20:42.998Z,60.71
2023-01-01T23:30:42.761Z,60.68
2023-01-01T23:38:12.329Z,61.01
2023-01-01T23:41:25.540Z,61.12
2023-01-01T23:47:29.719Z,60.87
2023-01-01T23:50:29.657Z,61.05
2023-01-01T23:53:55.992Z,61.10
2023-01-01T23:57:27.065Z,60.80
